createdAt,value
2018-07-05T00:02:08.680Z,74.11
2018-07-05T00:04:49.283Z,74.49
2018-07-05T00:07:29.802Z,73.76
2018-07-05T00:10:10.262Z,73.73
2018-07-05T00:12:52.334Z,73.66
2018-07-05T00:15:32.990Z,73.65
2018-07-05T00:18:13.642Z,73.94
2018-07-05T00:20:54.433Z,74.02
2018-07-05T00:23:36.071Z,74.14
2018-07-05T00:26:16.625Z,74.86
2018-07-05T00:28:57.437Z,74.75
2018-07-05T00:31:37.912Z,75.35
2018-07-05T00:34:19.245Z,74.70
2018-07-05T00:37:00.254Z,74.19
2018-07-05T00:39:40.834Z,74.84
2018-07-05T00:42:21.465Z,74.21
2018-07-05T00:45:02.242Z,74.07
2018-07-05T00:47:42.644Z,74.18
2018-07-05T00:50:23.946Z,74.58
2018-07-05T00:53:04.734Z,74.33
2018-07-05T00:55:45.661Z,74.18
2018-07-05T00:58:26.787Z,74.01
2018-07-05T01:01:07.353Z,74.11
2018-07-05T01:03:48.696Z,73.73
2018-07-05T01:06:30.124Z,73.44
2018-07-05T01:09:10.688Z,73.54
2018-07-05T01:11:51.997Z,73.63
2018-07-05T01:14:32.605Z,73.96
2018-07-05T01:17:13.152Z,74.08
2018-07-05T01:19:53.991Z,74.25
2018-07-05T01:22:34.606Z,74.36
2018-07-05T01:25:15.105Z,74.79
2018-07-05T01:27:56.156Z,74.39
2018-07-05T01:30:36.798Z,74.55
2018-07-05T01:33:17.505Z,74.58
2018-07-05T01:35:58.539Z,74.83
2018-07-05T01:38:39.153Z,75.04
2018-07-05T01:41:19.965Z,75.05
2018-07-05T01:44:00.590Z,75.36
2018-07-05T01:46:41.068Z,75.32
2018-07-05T01:49:21.628Z,75.31
2018-07-05T01:52:02.183Z,75.53
2018-07-05T01:54:42.900Z,75.95
2018-07-05T01:57:24.344Z,76.20
2018-07-05T02:00:05.024Z,76.36
2018-07-05T02:02:45.812Z,76.90
2018-07-05T02:05:26.545Z,77.56
2018-07-05T02:08:07.025Z,77.94
2018-07-05T02:10:47.573Z,77.74
2018-07-05T02:13:28.375Z,77.98
2018-07-05T02:16:09.163Z,78.11
2018-07-05T02:18:49.729Z,78.39
2018-07-05T02:21:30.496Z,78.28
2018-07-05T02:24:11.471Z,78.81
2018-07-05T02:26:52.070Z,78.77
2018-07-05T02:29:33.270Z,78.79
2018-07-05T02:32:13.801Z,78.91
2018-07-05T02:34:54.212Z,78.90
2018-07-05T02:37:40.237Z,78.99
2018-07-05T02:40:20.684Z,78.99
2018-07-05T02:43:01.881Z,78.83
2018-07-05T02:45:42.422Z,78.54
2018-07-05T02:55:32.307Z,79.38
2018-07-05T02:58:13.332Z,79.38
2018-07-05T03:00:54.924Z,78.96
2018-07-05T03:03:35.715Z,79.00
2018-07-05T03:06:16.369Z,78.83
2018-07-05T03:08:56.817Z,78.77
2018-07-05T03:11:37.562Z,78.65
2018-07-05T03:14:18.174Z,78.52
2018-07-05T03:16:59.215Z,78.39
2018-07-05T03:19:39.895Z,78.42
2018-07-05T03:22:20.773Z,78.52
2018-07-05T03:25:01.577Z,78.54
2018-07-05T03:27:42.602Z,78.44
2018-07-05T03:30:23.060Z,78.32
2018-07-05T03:33:04.287Z,78.18
2018-07-05T03:35:44.865Z,78.58
2018-07-05T03:38:25.276Z,78.50
2018-07-05T03:41:05.880Z,78.66
2018-07-05T03:43:46.330Z,78.00
2018-07-05T03:46:26.725Z,78.00
2018-07-05T03:49:07.592Z,77.97
2018-07-05T03:51:47.880Z,78.01
2018-07-05T03:54:28.373Z,77.64
2018-07-05T03:57:09.086Z,77.42
2018-07-05T03:59:49.660Z,77.39
2018-07-05T04:02:30.539Z,77.05
2018-07-05T04:05:11.117Z,76.89
2018-07-05T04:07:51.849Z,76.96
2018-07-05T04:10:32.994Z,76.89
2018-07-05T04:13:13.725Z,77.07
2018-07-05T04:15:54.319Z,76.75
2018-07-05T04:18:34.799Z,76.74
2018-07-05T04:21:18.330Z,76.91
2018-07-05T04:23:58.797Z,76.64
2018-07-05T04:26:39.497Z,76.68
2018-07-05T04:29:20.000Z,76.59
2018-07-05T04:32:00.650Z,76.22
2018-07-05T04:34:41.202Z,76.04
2018-07-05T04:37:21.631Z,75.86
2018-07-05T04:40:02.242Z,75.58
2018-07-05T04:42:42.889Z,75.41
2018-07-05T04:45:23.435Z,75.30
2018-07-05T04:48:04.672Z,75.64
2018-07-05T04:50:45.349Z,75.54
2018-07-05T04:53:26.569Z,75.69
2018-07-05T04:56:07.199Z,75.16
2018-07-05T04:58:47.951Z,75.92
2018-07-05T05:01:28.594Z,76.03
2018-07-05T05:04:09.394Z,75.88
2018-07-05T05:06:50.054Z,75.68
2018-07-05T05:09:30.537Z,75.40
2018-07-05T05:12:11.918Z,75.73
2018-07-05T05:14:52.811Z,75.32
2018-07-05T05:17:33.441Z,75.46
2018-07-05T05:20:14.116Z,76.04
2018-07-05T05:22:54.919Z,75.94
2018-07-05T05:25:35.594Z,76.14
2018-07-05T05:28:16.212Z,76.48
2018-07-05T05:30:56.845Z,76.86
2018-07-05T05:33:37.646Z,77.12
2018-07-05T05:36:18.230Z,76.72
2018-07-05T05:38:58.830Z,76.71
2018-07-05T05:41:39.563Z,76.53
2018-07-05T05:44:20.241Z,76.56
2018-07-05T05:47:00.994Z,75.92
2018-07-05T05:49:41.769Z,76.21
2018-07-05T05:52:22.300Z,76.42
2018-07-05T05:55:03.071Z,76.76
2018-07-05T05:57:44.652Z,76.38
2018-07-05T06:00:25.166Z,76.45
2018-07-05T06:03:06.181Z,75.49
2018-07-05T06:05:46.626Z,75.95
2018-07-05T06:08:27.346Z,76.37
2018-07-05T06:11:08.458Z,75.85
2018-07-05T06:13:48.945Z,75.73
2018-07-05T06:16:29.485Z,74.83
2018-07-05T06:19:10.100Z,74.77
2018-07-05T06:21:50.680Z,75.16
2018-07-05T06:24:31.464Z,74.54
2018-07-05T06:27:12.037Z,75.38
2018-07-05T06:29:52.511Z,75.48
2018-07-05T06:32:33.331Z,75.31
2018-07-05T06:35:14.404Z,74.99
2018-07-05T06:37:55.087Z,75.11
2018-07-05T06:40:35.968Z,75.39
2018-07-05T06:43:16.488Z,75.26
2018-07-05T06:45:57.368Z,76.14
2018-07-05T06:48:38.185Z,75.39
2018-07-05T06:51:19.259Z,74.95
2018-07-05T06:53:59.852Z,75.46
2018-07-05T06:56:40.686Z,75.67
2018-07-05T06:59:21.332Z,75.41
2018-07-05T07:02:02.130Z,76.18
2018-07-05T07:04:42.828Z,76.21
2018-07-05T07:07:23.485Z,77.15
2018-07-05T07:10:04.308Z,76.10
2018-07-05T07:12:44.927Z,75.56
2018-07-05T07:15:25.550Z,74.76
2018-07-05T07:18:06.601Z,74.42
2018-07-05T07:20:47.276Z,74.96
2018-07-05T07:23:27.802Z,73.94
2018-07-05T07:26:08.615Z,73.48
2018-07-05T07:28:49.300Z,73.34
2018-07-05T07:31:29.675Z,73.01
2018-07-05T07:34:10.732Z,73.75
2018-07-05T07:36:51.376Z,73.82
2018-07-05T07:39:32.360Z,73.98
2018-07-05T07:42:00.564Z,74.69
2018-07-05T07:44:28.708Z,74.15
2018-07-05T07:46:56.836Z,73.16
2018-07-05T07:49:25.024Z,72.67
2018-07-05T07:51:53.083Z,73.00
2018-07-05T07:54:21.282Z,72.63
2018-07-05T07:56:49.429Z,71.99
2018-07-05T07:59:17.529Z,71.99
2018-07-05T08:01:46.085Z,71.13
2018-07-05T08:04:14.402Z,71.70
2018-07-05T08:06:42.722Z,71.85
2018-07-05T08:09:11.474Z,71.78
2018-07-05T08:11:39.660Z,71.44
2018-07-05T08:14:08.578Z,71.26
2018-07-05T08:16:36.910Z,72.08
2018-07-05T08:19:05.295Z,72.86
2018-07-05T08:21:33.577Z,73.32
2018-07-05T08:24:01.891Z,73.18
2018-07-05T08:26:30.117Z,73.38
2018-07-05T08:28:58.237Z,73.87
2018-07-05T08:31:26.614Z,74.73
2018-07-05T08:36:29.441Z,75.92
2018-07-05T08:38:57.550Z,75.24
2018-07-05T08:41:25.645Z,74.23
2018-07-05T08:43:54.037Z,74.06
2018-07-05T08:46:22.127Z,73.81
2018-07-05T08:48:50.260Z,73.98
2018-07-05T08:51:18.356Z,74.47
2018-07-05T10:15:44.483Z,67.79
2018-07-05T10:18:12.842Z,69.76
2018-07-05T10:20:41.140Z,71.42
2018-07-05T10:23:09.880Z,72.14
2018-07-05T10:25:38.292Z,73.16
2018-07-05T10:28:06.753Z,72.44
2018-07-05T10:30:47.253Z,72.08
2018-07-05T10:33:27.900Z,71.53
2018-07-05T10:35:56.018Z,70.83
2018-07-05T10:38:24.126Z,70.16
2018-07-05T10:41:05.145Z,68.69
2018-07-05T10:43:45.758Z,65.56
2018-07-05T10:46:26.365Z,66.50
2018-07-05T10:49:07.237Z,64.46
2018-07-05T10:51:47.773Z,63.74
2018-07-05T10:54:28.473Z,64.02
2018-07-05T10:57:09.255Z,64.22
2018-07-05T10:59:49.984Z,64.93
2018-07-05T11:02:31.717Z,65.43
2018-07-05T11:05:12.134Z,66.26
2018-07-05T11:07:52.761Z,66.74
2018-07-05T11:10:33.407Z,66.89
2018-07-05T11:13:14.615Z,66.57
2018-07-05T11:15:55.669Z,67.22
2018-07-05T11:18:36.627Z,67.93
2018-07-05T11:21:17.126Z,67.56
2018-07-05T11:23:57.803Z,66.95
2018-07-05T11:26:38.458Z,66.99
2018-07-05T11:29:19.407Z,68.11
2018-07-05T11:32:00.236Z,68.69
2018-07-05T11:34:40.796Z,68.83
2018-07-05T11:37:21.405Z,68.32
2018-07-05T11:40:02.235Z,67.97
2018-07-05T11:42:43.098Z,68.11
2018-07-05T11:45:23.947Z,67.69
2018-07-05T11:48:04.538Z,67.29
2018-07-05T11:50:45.416Z,67.25
2018-07-05T11:53:26.050Z,66.30
2018-07-05T11:56:07.024Z,65.99
2018-07-05T11:58:47.521Z,65.00
2018-07-05T12:01:27.852Z,63.85
2018-07-05T12:04:08.804Z,63.86
2018-07-05T12:06:49.431Z,64.25
2018-07-05T12:09:29.900Z,63.78
2018-07-05T12:12:10.967Z,64.84
2018-07-05T12:14:51.562Z,65.55
2018-07-05T12:17:32.619Z,65.37
2018-07-05T12:20:14.283Z,65.68
2018-07-05T12:22:54.731Z,66.05
2018-07-05T12:25:35.260Z,66.08
2018-07-05T12:28:16.017Z,64.92
2018-07-05T12:30:56.531Z,64.32
2018-07-05T12:33:37.243Z,64.37
2018-07-05T12:36:17.894Z,64.23
2018-07-05T12:38:58.762Z,65.40
2018-07-05T12:41:39.552Z,64.56
2018-07-05T12:44:20.129Z,64.79
2018-07-05T12:47:00.881Z,64.40
2018-07-05T12:49:41.696Z,63.36
2018-07-05T12:52:22.439Z,64.01
2018-07-05T12:55:04.641Z,64.05
2018-07-05T12:57:45.261Z,64.49
2018-07-05T13:00:25.710Z,64.04
2018-07-05T13:03:06.610Z,63.92
2018-07-05T13:05:47.507Z,63.77
2018-07-05T13:08:27.833Z,63.67
2018-07-05T13:11:08.779Z,64.25
2018-07-05T13:13:49.424Z,64.49
2018-07-05T13:16:30.164Z,64.67
2018-07-05T13:19:10.699Z,64.52
2018-07-05T13:21:51.242Z,64.81
2018-07-05T13:24:32.138Z,65.11
2018-07-05T13:27:12.717Z,64.97
2018-07-05T13:29:53.337Z,65.05
2018-07-05T13:32:34.230Z,66.60
2018-07-05T13:35:15.354Z,67.50
2018-07-05T13:37:55.981Z,67.78
2018-07-05T13:40:36.900Z,67.69
2018-07-05T13:43:17.722Z,65.92
2018-07-05T13:45:58.076Z,65.61
2018-07-05T13:48:38.924Z,64.79
2018-07-05T13:51:19.408Z,64.46
2018-07-05T13:53:59.924Z,64.01
2018-07-05T13:56:40.540Z,64.62
2018-07-05T13:59:21.241Z,63.91
2018-07-05T14:02:02.834Z,64.27
2018-07-05T14:04:43.626Z,64.92
2018-07-05T14:07:24.016Z,65.77
2018-07-05T14:10:04.487Z,65.76
2018-07-05T14:12:45.143Z,65.75
2018-07-05T14:15:25.829Z,65.15
2018-07-05T14:18:06.615Z,64.43
2018-07-05T14:20:47.758Z,64.76
2018-07-05T14:23:28.474Z,65.12
2018-07-05T14:26:09.375Z,64.93
2018-07-05T14:28:50.884Z,65.51
2018-07-05T14:31:31.693Z,65.55
2018-07-05T14:34:12.444Z,66.61
2018-07-05T14:36:53.230Z,66.60
2018-07-05T14:39:33.803Z,66.09
2018-07-05T14:42:14.730Z,66.82
2018-07-05T14:44:55.276Z,66.78
2018-07-05T14:47:36.248Z,66.93
2018-07-05T14:50:16.749Z,66.87
2018-07-05T14:52:57.512Z,67.09
2018-07-05T14:55:39.188Z,67.39
2018-07-05T14:58:19.786Z,66.70
2018-07-05T15:01:00.274Z,66.90
2018-07-05T15:03:40.736Z,66.50
2018-07-05T15:06:21.273Z,66.22
2018-07-05T15:09:02.226Z,67.24
2018-07-05T15:11:43.096Z,66.59
2018-07-05T15:14:23.485Z,66.55
2018-07-05T15:17:04.660Z,66.08
2018-07-05T15:19:45.304Z,66.04
2018-07-05T15:22:26.199Z,66.63
2018-07-05T15:25:08.530Z,65.99
2018-07-05T15:27:49.237Z,65.44
2018-07-05T15:30:30.029Z,65.37
2018-07-05T15:33:11.094Z,65.49
2018-07-05T15:35:52.404Z,64.87
2018-07-05T15:38:33.369Z,65.16
2018-07-05T15:41:15.037Z,65.00
2018-07-05T15:43:55.621Z,65.58
2018-07-05T15:46:38.149Z,65.39
2018-07-05T15:49:18.682Z,65.28
2018-07-05T15:51:59.164Z,65.40
2018-07-05T15:54:39.719Z,66.47
2018-07-05T15:57:20.369Z,66.08
2018-07-05T16:00:00.969Z,66.89
2018-07-05T16:02:42.354Z,66.35
2018-07-05T16:05:22.875Z,66.63
2018-07-05T16:08:03.705Z,66.25
2018-07-05T16:10:44.223Z,66.20
2018-07-05T16:13:24.703Z,66.26
2018-07-05T16:16:05.300Z,66.19
2018-07-05T16:18:46.221Z,65.78
2018-07-05T16:21:26.877Z,66.49
2018-07-05T16:24:07.982Z,67.05
2018-07-05T16:26:48.751Z,67.17
2018-07-05T16:29:29.949Z,68.17
2018-07-05T16:32:10.689Z,68.25
2018-07-05T16:34:51.434Z,68.34
2018-07-05T16:37:32.751Z,68.57
2018-07-05T16:40:13.423Z,68.68
2018-07-05T16:42:53.944Z,67.62
2018-07-05T16:45:34.745Z,68.67
2018-07-05T16:48:15.393Z,68.31
2018-07-05T16:50:56.141Z,68.63
2018-07-05T16:53:36.790Z,68.24
2018-07-05T16:56:17.537Z,68.01
2018-07-05T16:58:58.400Z,67.78
2018-07-05T17:01:39.170Z,68.05
2018-07-05T17:04:19.836Z,67.96
2018-07-05T17:07:00.374Z,67.89
2018-07-05T17:09:41.037Z,67.15
2018-07-05T17:12:21.589Z,67.42
2018-07-05T17:15:02.251Z,68.48
2018-07-05T17:17:42.973Z,68.42
2018-07-05T17:20:23.488Z,68.03
2018-07-05T17:23:04.684Z,68.43
2018-07-05T17:25:45.315Z,69.68
2018-07-05T17:28:25.710Z,69.37
2018-07-05T17:31:06.355Z,69.48
2018-07-05T17:33:47.250Z,70.31
2018-07-05T17:36:27.856Z,69.88
2018-07-05T17:39:08.665Z,70.28
2018-07-05T17:41:49.388Z,70.21
2018-07-05T17:44:29.917Z,70.70
2018-07-05T17:47:10.646Z,69.77
2018-07-05T17:49:51.151Z,69.88
2018-07-05T17:52:36.151Z,70.34
2018-07-05T17:55:18.064Z,70.41
2018-07-05T17:57:58.595Z,70.29
2018-07-05T18:00:39.693Z,70.51
2018-07-05T18:03:20.440Z,70.33
2018-07-05T18:06:01.325Z,70.47
2018-07-05T18:08:42.026Z,70.46
2018-07-05T18:11:22.640Z,70.25
2018-07-05T18:14:03.331Z,71.17
2018-07-05T18:16:44.023Z,70.73
2018-07-05T18:19:24.510Z,71.38
2018-07-05T18:22:05.393Z,71.27
2018-07-05T18:24:46.017Z,71.30
2018-07-05T18:27:26.572Z,70.74
2018-07-05T18:30:07.151Z,71.54
2018-07-05T18:32:47.804Z,71.44
2018-07-05T18:35:28.383Z,72.71
2018-07-05T18:38:09.498Z,72.53
2018-07-05T18:40:50.029Z,73.17
2018-07-05T18:43:31.173Z,74.06
2018-07-05T18:46:11.919Z,74.41
2018-07-05T18:48:52.784Z,75.32
2018-07-05T18:51:33.568Z,76.14
2018-07-05T18:54:14.134Z,76.52
2018-07-05T18:56:54.636Z,76.56
2018-07-05T18:59:35.859Z,76.52
2018-07-05T19:02:16.401Z,76.68
2018-07-05T19:04:57.160Z,75.96
2018-07-05T19:07:37.885Z,75.93
2018-07-05T19:10:18.634Z,75.65
2018-07-05T19:12:58.994Z,75.47
2018-07-05T19:15:41.037Z,75.26
2018-07-05T19:18:21.507Z,74.60
2018-07-05T19:21:02.322Z,74.00
2018-07-05T19:23:42.940Z,73.83
2018-07-05T19:26:23.492Z,74.09
2018-07-05T19:29:04.387Z,74.33
2018-07-05T19:31:45.548Z,74.14
2018-07-05T19:34:26.093Z,74.36
2018-07-05T19:37:06.994Z,74.31
2018-07-05T19:39:47.878Z,74.60
2018-07-05T19:42:28.738Z,74.42
2018-07-05T19:45:09.296Z,74.47
2018-07-05T19:47:50.241Z,74.37
2018-07-05T19:50:30.792Z,74.27
2018-07-05T19:53:11.867Z,74.15
2018-07-05T19:55:52.350Z,73.90
2018-07-05T19:58:32.824Z,74.02
2018-07-05T20:01:13.678Z,74.40
2018-07-05T20:03:54.559Z,74.82
2018-07-05T20:06:35.334Z,75.12
2018-07-05T20:09:16.494Z,75.41
2018-07-05T20:12:02.473Z,75.76
2018-07-05T20:14:43.568Z,75.57
2018-07-05T20:17:24.158Z,75.62
2018-07-05T20:20:05.108Z,75.49
2018-07-05T20:22:45.876Z,75.29
2018-07-05T20:25:26.537Z,75.52
2018-07-05T20:28:07.298Z,74.82
2018-07-05T20:30:47.910Z,74.78
2018-07-05T20:33:28.464Z,74.99
2018-07-05T20:36:08.916Z,75.11
2018-07-05T20:38:49.242Z,75.56
2018-07-05T20:41:29.688Z,75.74
2018-07-05T20:44:10.269Z,76.13
2018-07-05T20:46:51.765Z,76.47
2018-07-05T20:49:32.622Z,76.40
2018-07-05T20:52:13.295Z,76.63
2018-07-05T20:54:53.865Z,76.87
2018-07-05T20:57:34.940Z,77.08
2018-07-05T21:00:15.788Z,77.38
2018-07-05T21:02:56.406Z,77.49
2018-07-05T21:05:36.947Z,77.28
2018-07-05T21:08:17.804Z,77.70
2018-07-05T21:10:58.405Z,77.57
2018-07-05T21:13:39.664Z,77.64
2018-07-05T21:16:20.425Z,78.13
2018-07-05T21:19:01.604Z,78.50
2018-07-05T21:21:42.470Z,78.36
2018-07-05T21:24:23.014Z,78.71
2018-07-05T21:27:03.704Z,78.50
2018-07-05T21:29:44.595Z,78.38
2018-07-05T21:32:25.211Z,78.38
2018-07-05T21:35:06.022Z,78.52
2018-07-05T21:37:46.561Z,78.58
2018-07-05T21:40:27.309Z,78.67
2018-07-05T21:43:07.912Z,78.69
2018-07-05T21:45:48.680Z,78.70
2018-07-05T21:48:29.409Z,79.05
2018-07-05T21:51:10.074Z,79.13
2018-07-05T21:53:50.580Z,79.35
2018-07-05T21:56:31.495Z,79.33
2018-07-05T21:59:11.838Z,79.63
2018-07-05T22:01:52.397Z,79.46
2018-07-05T22:04:33.899Z,79.17
2018-07-05T22:07:14.542Z,78.37
2018-07-05T22:09:54.978Z,78.06
2018-07-05T22:12:36.075Z,78.25
2018-07-05T22:15:16.646Z,78.17
2018-07-05T22:18:02.692Z,78.09
2018-07-05T22:20:48.611Z,78.29
2018-07-05T22:23:34.782Z,78.15
2018-07-05T22:26:20.889Z,77.72
2018-07-05T22:29:07.336Z,77.72
2018-07-05T22:31:52.013Z,77.72
2018-07-05T22:34:33.068Z,77.61
2018-07-05T22:37:13.653Z,77.38
2018-07-05T22:39:54.589Z,77.49
2018-07-05T22:42:35.503Z,77.24
2018-07-05T22:45:16.488Z,77.27
2018-07-05T22:47:56.835Z,77.45
2018-07-05T22:50:37.660Z,77.61
2018-07-05T22:53:18.186Z,77.58
2018-07-05T22:55:58.893Z,77.91
2018-07-05T22:58:39.425Z,77.89
2018-07-05T23:01:20.159Z,77.76
2018-07-05T23:04:01.017Z,77.62
2018-07-05T23:06:42.291Z,77.25
2018-07-05T23:09:22.776Z,77.03
2018-07-05T23:12:04.081Z,75.86
2018-07-05T23:14:44.761Z,75.02
2018-07-05T23:17:25.405Z,74.50
2018-07-05T23:20:11.924Z,74.30
2018-07-05T23:22:52.377Z,73.84
2018-07-05T23:25:33.198Z,73.86
2018-07-05T23:28:14.120Z,73.99
2018-07-05T23:30:54.496Z,73.25
2018-07-05T23:33:35.114Z,73.23
2018-07-05T23:36:15.660Z,73.29
2018-07-05T23:38:56.324Z,72.78
2018-07-05T23:41:36.784Z,72.60
2018-07-05T23:44:17.335Z,72.77
2018-07-05T23:46:57.984Z,72.78
2018-07-05T23:49:38.550Z,72.90
2018-07-05T23:52:19.038Z,72.92
2018-07-05T23:54:59.576Z,73.10
2018-07-05T23:57:40.058Z,73.08
